sensor_id;sensor_type;location;lat;lon;timestamp;temperature;humidity
41547;DHT22;27271;45.412;10.852;2023-06-01T00:03:12;19.10;1.00
41547;DHT22;27271;45.412;10.852;2023-06-01T00:06:34;19.00;1.00
41547;DHT22;27271;45.412;10.852;2023-06-01T00:09:57;18.80;1.00
41547;DHT22;27271;45.412;10.852;2023-06-01T00:13:19;18.70;1.00
41547;DHT22;27271;45.412;10.852;2023-06-01T00:16:41;18.60;1.00
41547;DHT22;27271;45.412;10.852;2023-06-01T00:20:04;18.50;1.00
41547;DHT22;27271;45.412;10.852;2023-06-01T00:23:30;18.40;1.00
41547;DHT22;27271;45.412;10.852;2023-06-01T00:26:53;18.40;1.00
41547;DHT22;27271;45.412;10.852;2023-06-01T00:30:15;18.30;1.00
41547;DHT22;27271;45.412;10.852;2023-06-01T00:33:37;18.10;1.00
41547;DHT22;27271;45.412;10.852;2023-06-01T00:36:59;18.00;1.00
41547;DHT22;27271;45.412;10.852;2023-06-01T00:40:21;17.90;1.00
41547;DHT22;27271;45.412;10.852;2023-06-01T00:43:43;17.90;1.00
41547;DHT22;27271;45.412;10.852;2023-06-01T00:47:05;17.90;1.00
41547;DHT22;27271;45.412;10.852;2023-06-01T00:50:30;17.80;1.00
41547;DHT22;27271;45.412;10.852;2023-06-01T00:53:52;17.90;1.00
41547;DHT22;27271;45.412;10.852;2023-06-01T00:57:14;17.90;1.00
41547;DHT22;27271;45.412;10.852;2023-06-01T01:00:37;17.90;1.00
41547;DHT22;27271;45.412;10.852;2023-06-01T01:03:59;17.90;1.00
41547;DHT22;27271;45.412;10.852;2023-06-01T01:07:35;17.90;1.00
41547;DHT22;27271;45.412;10.852;2023-06-01T01:14:30;17.90;1.00
41547;DHT22;27271;45.412;10.852;2023-06-01T01:17:59;18.10;1.00
41547;DHT22;27271;45.412;10.852;2023-06-01T01:21:31;18.10;1.00
41547;DHT22;27271;45.412;10.852;2023-06-01T01:28:49;18.30;1.00
41547;DHT22;27271;45.412;10.852;2023-06-01T01:32:13;18.30;1.00
41547;DHT22;27271;45.412;10.852;2023-06-01T01:35:37;18.40;1.00
41547;DHT22;27271;45.412;10.852;2023-06-01T01:39:00;18.40;1.00
41547;DHT22;27271;45.412;10.852;2023-06-01T01:42:23;18.40;1.00
41547;DHT22;27271;45.412;10.852;2023-06-01T01:45:51;18.50;1.00
41547;DHT22;27271;45.412;10.852;2023-06-01T01:49:20;18.50;1.00
41547;DHT22;27271;45.412;10.852;2023-06-01T01:52:45;18.50;1.00
41547;DHT22;27271;45.412;10.852;2023-06-01T01:56:08;18.50;1.00
41547;DHT22;27271;45.412;10.852;2023-06-01T01:59:31;18.60;1.00
41547;DHT22;27271;45.412;10.852;2023-06-01T02:02:54;18.50;1.00
41547;DHT22;27271;45.412;10.852;2023-06-01T02:06:16;18.50;1.00
41547;DHT22;27271;45.412;10.852;2023-06-01T02:09:39;18.60;1.00
41547;DHT22;27271;45.412;10.852;2023-06-01T02:13:04;18.60;1.00
41547;DHT22;27271;45.412;10.852;2023-06-01T02:16:26;18.60;1.00
41547;DHT22;27271;45.412;10.852;2023-06-01T02:19:48;18.50;1.00
41547;DHT22;27271;45.412;10.852;2023-06-01T02:23:11;18.40;1.00
41547;DHT22;27271;45.412;10.852;2023-06-01T02:26:33;18.40;1.00
41547;DHT22;27271;45.412;10.852;2023-06-01T02:29:56;18.40;1.00
41547;DHT22;27271;45.412;10.852;2023-06-01T02:33:19;18.30;1.00
41547;DHT22;27271;45.412;10.852;2023-06-01T02:36:41;18.40;1.00
41547;DHT22;27271;45.412;10.852;2023-06-01T02:40:07;18.50;1.00
41547;DHT22;27271;45.412;10.852;2023-06-01T02:43:34;18.40;1.00
41547;DHT22;27271;45.412;10.852;2023-06-01T02:46:59;18.40;1.00
41547;DHT22;27271;45.412;10.852;2023-06-01T02:50:23;18.30;1.00
41547;DHT22;27271;45.412;10.852;2023-06-01T02:53:47;18.30;1.00
41547;DHT22;27271;45.412;10.852;2023-06-01T02:57:09;18.30;1.00
41547;DHT22;27271;45.412;10.852;2023-06-01T03:00:45;18.20;1.00
41547;DHT22;27271;45.412;10.852;2023-06-01T03:04:07;18.20;1.00
41547;DHT22;27271;45.412;10.852;2023-06-01T03:07:29;18.50;1.00
41547;DHT22;27271;45.412;10.852;2023-06-01T03:10:57;18.50;1.00
41547;DHT22;27271;45.412;10.852;2023-06-01T03:14:26;18.40;1.00
41547;DHT22;27271;45.412;10.852;2023-06-01T03:17:49;18.10;1.00
41547;DHT22;27271;45.412;10.852;2023-06-01T03:21:11;18.00;1.00
41547;DHT22;27271;45.412;10.852;2023-06-01T03:24:33;18.00;1.00
41547;DHT22;27271;45.412;10.852;2023-06-01T03:27:57;17.90;1.00
41547;DHT22;27271;45.412;10.852;2023-06-01T03:31:19;17.90;1.00
41547;DHT22;27271;45.412;10.852;2023-06-01T03:34:42;17.90;1.00
41547;DHT22;27271;45.412;10.852;2023-06-01T03:38:04;17.60;1.00
41547;DHT22;27271;45.412;10.852;2023-06-01T03:41:26;17.50;1.00
41547;DHT22;27271;45.412;10.852;2023-06-01T03:44:49;17.40;1.00
41547;DHT22;27271;45.412;10.852;2023-06-01T03:48:12;17.40;27.40
41547;DHT22;27271;45.412;10.852;2023-06-01T03:51:34;17.10;25.40
41547;DHT22;27271;45.412;10.852;2023-06-01T03:54:59;17.10;31.70
41547;DHT22;27271;45.412;10.852;2023-06-01T03:58:45;17.10;32.50
41547;DHT22;27271;45.412;10.852;2023-06-01T04:02:10;17.20;31.80
41547;DHT22;27271;45.412;10.852;2023-06-01T04:05:32;17.30;15.40
41547;DHT22;27271;45.412;10.852;2023-06-01T04:08:55;17.30;16.60
41547;DHT22;27271;45.412;10.852;2023-06-01T04:12:20;17.20;17.80
41547;DHT22;27271;45.412;10.852;2023-06-01T04:15:42;17.20;56.10
41547;DHT22;27271;45.412;10.852;2023-06-01T04:19:06;17.10;84.50
41547;DHT22;27271;45.412;10.852;2023-06-01T04:22:28;17.20;52.90
41547;DHT22;27271;45.412;10.852;2023-06-01T04:25:53;17.40;39.80
41547;DHT22;27271;45.412;10.852;2023-06-01T04:29:23;17.40;22.60
41547;DHT22;27271;45.412;10.852;2023-06-01T04:32:47;17.50;2.90
41547;DHT22;27271;45.412;10.852;2023-06-01T04:36:14;17.40;2.10
41547;DHT22;27271;45.412;10.852;2023-06-01T04:39:41;17.50;24.90
41547;DHT22;27271;45.412;10.852;2023-06-01T04:43:07;17.40;18.70
41547;DHT22;27271;45.412;10.852;2023-06-01T04:46:30;17.50;27.60
41547;DHT22;27271;45.412;10.852;2023-06-01T04:49:54;17.60;2.80
41547;DHT22;27271;45.412;10.852;2023-06-01T04:53:18;17.90;1.00
41547;DHT22;27271;45.412;10.852;2023-06-01T04:56:40;18.20;1.00
41547;DHT22;27271;45.412;10.852;2023-06-01T05:00:04;18.40;1.00
41547;DHT22;27271;45.412;10.852;2023-06-01T05:03:31;18.50;1.00
41547;DHT22;27271;45.412;10.852;2023-06-01T05:06:54;18.70;1.00
41547;DHT22;27271;45.412;10.852;2023-06-01T05:10:16;18.90;1.00
41547;DHT22;27271;45.412;10.852;2023-06-01T05:13:41;19.20;1.00
41547;DHT22;27271;45.412;10.852;2023-06-01T05:17:03;19.70;1.00
41547;DHT22;27271;45.412;10.852;2023-06-01T05:20:29;20.80;1.00
41547;DHT22;27271;45.412;10.852;2023-06-01T05:24:01;22.50;1.00
41547;DHT22;27271;45.412;10.852;2023-06-01T05:27:24;23.90;1.00
41547;DHT22;27271;45.412;10.852;2023-06-01T05:30:47;25.50;1.00
41547;DHT22;27271;45.412;10.852;2023-06-01T05:34:09;27.00;1.00
41547;DHT22;27271;45.412;10.852;2023-06-01T05:37:32;28.50;1.00
41547;DHT22;27271;45.412;10.852;2023-06-01T05:40:54;29.70;1.00
41547;DHT22;27271;45.412;10.852;2023-06-01T05:44:16;29.80;1.00
41547;DHT22;27271;45.412;10.852;2023-06-01T05:47:39;30.30;1.00
41547;DHT22;27271;45.412;10.852;2023-06-01T05:51:01;31.00;1.00
41547;DHT22;27271;45.412;10.852;2023-06-01T05:54:24;31.20;1.00
41547;DHT22;27271;45.412;10.852;2023-06-01T05:57:47;31.40;1.00
41547;DHT22;27271;45.412;10.852;2023-06-01T06:01:20;31.80;99.90
41547;DHT22;27271;45.412;10.852;2023-06-01T06:04:48;32.30;1.00
41547;DHT22;27271;45.412;10.852;2023-06-01T06:08:10;32.60;99.90
41547;DHT22;27271;45.412;10.852;2023-06-01T06:11:32;33.40;99.90
41547;DHT22;27271;45.412;10.852;2023-06-01T06:14:55;33.40;99.90
41547;DHT22;27271;45.412;10.852;2023-06-01T06:18:17;33.30;99.90
41547;DHT22;27271;45.412;10.852;2023-06-01T06:21:41;33.80;99.90
41547;DHT22;27271;45.412;10.852;2023-06-01T06:25:04;34.20;99.90
41547;DHT22;27271;45.412;10.852;2023-06-01T06:28:26;34.50;99.90
41547;DHT22;27271;45.412;10.852;2023-06-01T06:31:49;34.10;99.90
41547;DHT22;27271;45.412;10.852;2023-06-01T06:35:11;33.80;99.90
41547;DHT22;27271;45.412;10.852;2023-06-01T06:38:35;33.50;99.90
41547;DHT22;27271;45.412;10.852;2023-06-01T06:41:57;33.30;99.90
41547;DHT22;27271;45.412;10.852;2023-06-01T06:45:19;33.50;99.90
41547;DHT22;27271;45.412;10.852;2023-06-01T06:48:41;34.20;99.90
41547;DHT22;27271;45.412;10.852;2023-06-01T06:52:03;34.50;99.90
41547;DHT22;27271;45.412;10.852;2023-06-01T06:55:25;34.60;99.90
41547;DHT22;27271;45.412;10.852;2023-06-01T06:58:48;34.70;99.90
41547;DHT22;27271;45.412;10.852;2023-06-01T07:02:28;34.70;99.90
41547;DHT22;27271;45.412;10.852;2023-06-01T07:05:50;35.10;99.90
41547;DHT22;27271;45.412;10.852;2023-06-01T07:09:12;35.50;99.90
41547;DHT22;27271;45.412;10.852;2023-06-01T07:12:34;35.60;99.90
41547;DHT22;27271;45.412;10.852;2023-06-01T07:15:56;35.80;99.90
41547;DHT22;27271;45.412;10.852;2023-06-01T07:19:18;36.20;99.90
41547;DHT22;27271;45.412;10.852;2023-06-01T07:22:40;36.60;99.90
41547;DHT22;27271;45.412;10.852;2023-06-01T07:26:03;36.00;99.90
41547;DHT22;27271;45.412;10.852;2023-06-01T07:29:25;35.70;99.90
41547;DHT22;27271;45.412;10.852;2023-06-01T07:32:52;35.80;99.90
41547;DHT22;27271;45.412;10.852;2023-06-01T07:36:14;36.10;99.90
41547;DHT22;27271;45.412;10.852;2023-06-01T07:39:36;36.30;99.90
41547;DHT22;27271;45.412;10.852;2023-06-01T07:42:59;36.50;99.90
41547;DHT22;27271;45.412;10.852;2023-06-01T07:46:22;36.10;99.90
41547;DHT22;27271;45.412;10.852;2023-06-01T07:49:45;36.60;99.90
41547;DHT22;27271;45.412;10.852;2023-06-01T07:53:10;36.90;99.90
41547;DHT22;27271;45.412;10.852;2023-06-01T07:56:32;37.00;99.90
41547;DHT22;27271;45.412;10.852;2023-06-01T07:59:54;37.20;99.90
41547;DHT22;27271;45.412;10.852;2023-06-01T08:03:16;37.10;99.90
41547;DHT22;27271;45.412;10.852;2023-06-01T08:06:39;37.20;99.90
41547;DHT22;27271;45.412;10.852;2023-06-01T08:10:06;36.90;99.90
41547;DHT22;27271;45.412;10.852;2023-06-01T08:13:30;37.30;99.90
41547;DHT22;27271;45.412;10.852;2023-06-01T08:16:52;37.10;99.90
41547;DHT22;27271;45.412;10.852;2023-06-01T08:20:14;38.00;99.90
41547;DHT22;27271;45.412;10.852;2023-06-01T08:23:37;38.30;99.90
41547;DHT22;27271;45.412;10.852;2023-06-01T08:27:00;38.40;99.90
41547;DHT22;27271;45.412;10.852;2023-06-01T08:30:25;38.30;99.90
41547;DHT22;27271;45.412;10.852;2023-06-01T08:33:48;37.80;99.90
41547;DHT22;27271;45.412;10.852;2023-06-01T08:37:10;37.40;99.90
41547;DHT22;27271;45.412;10.852;2023-06-01T08:40:32;37.70;99.90
41547;DHT22;27271;45.412;10.852;2023-06-01T08:43:58;37.60;99.90
41547;DHT22;27271;45.412;10.852;2023-06-01T08:47:25;38.60;99.90
41547;DHT22;27271;45.412;10.852;2023-06-01T08:50:51;38.70;99.90
41547;DHT22;27271;45.412;10.852;2023-06-01T08:54:15;37.80;99.90
41547;DHT22;27271;45.412;10.852;2023-06-01T08:57:40;38.00;99.90
41547;DHT22;27271;45.412;10.852;2023-06-01T09:01:03;37.20;99.90
41547;DHT22;27271;45.412;10.852;2023-06-01T09:04:29;36.70;99.90
41547;DHT22;27271;45.412;10.852;2023-06-01T09:07:55;36.20;99.90
41547;DHT22;27271;45.412;10.852;2023-06-01T09:11:18;35.90;99.90
41547;DHT22;27271;45.412;10.852;2023-06-01T09:14:40;34.30;99.90
41547;DHT22;27271;45.412;10.852;2023-06-01T09:18:10;33.10;99.90
41547;DHT22;27271;45.412;10.852;2023-06-01T09:21:32;32.80;99.90
41547;DHT22;27271;45.412;10.852;2023-06-01T09:25:00;33.30;99.90
41547;DHT22;27271;45.412;10.852;2023-06-01T09:28:23;34.40;99.90
41547;DHT22;27271;45.412;10.852;2023-06-01T09:31:47;35.10;99.90
41547;DHT22;27271;45.412;10.852;2023-06-01T09:35:10;34.30;99.90
41547;DHT22;27271;45.412;10.852;2023-06-01T09:38:35;34.10;99.90
41547;DHT22;27271;45.412;10.852;2023-06-01T09:41:58;34.10;99.90
41547;DHT22;27271;45.412;10.852;2023-06-01T09:45:24;34.00;99.90
41547;DHT22;27271;45.412;10.852;2023-06-01T09:48:47;34.60;99.90
41547;DHT22;27271;45.412;10.852;2023-06-01T09:52:15;35.10;99.90
41547;DHT22;27271;45.412;10.852;2023-06-01T09:59:22;35.00;99.90
41547;DHT22;27271;45.412;10.852;2023-06-01T10:02:44;35.60;99.90
41547;DHT22;27271;45.412;10.852;2023-06-01T10:06:06;36.40;99.90
41547;DHT22;27271;45.412;10.852;2023-06-01T10:09:30;37.20;99.90
41547;DHT22;27271;45.412;10.852;2023-06-01T10:12:53;36.80;99.90
41547;DHT22;27271;45.412;10.852;2023-06-01T10:16:15;36.40;99.90
41547;DHT22;27271;45.412;10.852;2023-06-01T10:19:38;35.10;99.90
41547;DHT22;27271;45.412;10.852;2023-06-01T10:23:01;34.70;99.90
41547;DHT22;27271;45.412;10.852;2023-06-01T10:26:24;34.00;99.90
41547;DHT22;27271;45.412;10.852;2023-06-01T10:29:49;33.90;99.90
41547;DHT22;27271;45.412;10.852;2023-06-01T10:33:11;34.70;99.90
41547;DHT22;27271;45.412;10.852;2023-06-01T10:43:42;32.70;99.90
41547;DHT22;27271;45.412;10.852;2023-06-01T10:47:43;33.10;99.90
41547;DHT22;27271;45.412;10.852;2023-06-01T10:51:16;32.70;99.90
41547;DHT22;27271;45.412;10.852;2023-06-01T10:54:39;32.30;99.90
41547;DHT22;27271;45.412;10.852;2023-06-01T10:58:20;31.80;99.90
41547;DHT22;27271;45.412;10.852;2023-06-01T11:01:46;32.20;99.90
41547;DHT22;27271;45.412;10.852;2023-06-01T11:09:00;33.70;99.90
41547;DHT22;27271;45.412;10.852;2023-06-01T11:12:23;33.30;99.90
41547;DHT22;27271;45.412;10.852;2023-06-01T11:19:31;33.60;99.90
41547;DHT22;27271;45.412;10.852;2023-06-01T11:23:01;33.70;99.90
41547;DHT22;27271;45.412;10.852;2023-06-01T11:26:24;33.00;99.90
41547;DHT22;27271;45.412;10.852;2023-06-01T11:29:52;32.70;99.90
41547;DHT22;27271;45.412;10.852;2023-06-01T11:33:15;32.80;99.90
41547;DHT22;27271;45.412;10.852;2023-06-01T11:36:45;32.90;99.90
41547;DHT22;27271;45.412;10.852;2023-06-01T11:40:10;32.30;99.90
41547;DHT22;27271;45.412;10.852;2023-06-01T11:43:33;32.40;99.90
41547;DHT22;27271;45.412;10.852;2023-06-01T11:46:56;32.30;99.90
41547;DHT22;27271;45.412;10.852;2023-06-01T11:50:23;31.90;99.90
41547;DHT22;27271;45.412;10.852;2023-06-01T11:53:48;31.70;99.90
41547;DHT22;27271;45.412;10.852;2023-06-01T11:57:11;32.30;99.90
41547;DHT22;27271;45.412;10.852;2023-06-01T12:00:38;31.40;99.90
41547;DHT22;27271;45.412;10.852;2023-06-01T12:04:00;31.70;99.90
41547;DHT22;27271;45.412;10.852;2023-06-01T12:07:24;30.70;99.90
41547;DHT22;27271;45.412;10.852;2023-06-01T12:10:47;30.50;99.90
41547;DHT22;27271;45.412;10.852;2023-06-01T12:14:13;30.80;99.90
41547;DHT22;27271;45.412;10.852;2023-06-01T12:18:05;30.90;99.90
41547;DHT22;27271;45.412;10.852;2023-06-01T12:21:28;30.90;99.90
41547;DHT22;27271;45.412;10.852;2023-06-01T12:24:50;31.40;99.90
41547;DHT22;27271;45.412;10.852;2023-06-01T12:28:12;31.50;99.90
41547;DHT22;27271;45.412;10.852;2023-06-01T12:31:37;31.00;99.90
41547;DHT22;27271;45.412;10.852;2023-06-01T12:35:03;30.60;99.90
41547;DHT22;27271;45.412;10.852;2023-06-01T12:38:27;30.70;99.90
41547;DHT22;27271;45.412;10.852;2023-06-01T12:41:49;31.00;99.90
41547;DHT22;27271;45.412;10.852;2023-06-01T12:45:12;31.70;99.90
41547;DHT22;27271;45.412;10.852;2023-06-01T12:48:35;32.30;99.90
41547;DHT22;27271;45.412;10.852;2023-06-01T12:51:58;32.80;99.90
41547;DHT22;27271;45.412;10.852;2023-06-01T12:55:20;32.80;99.90
41547;DHT22;27271;45.412;10.852;2023-06-01T12:58:43;32.30;99.90
41547;DHT22;27271;45.412;10.852;2023-06-01T13:02:05;32.30;99.90
41547;DHT22;27271;45.412;10.852;2023-06-01T13:05:27;32.60;99.90
41547;DHT22;27271;45.412;10.852;2023-06-01T13:08:49;32.00;99.90
41547;DHT22;27271;45.412;10.852;2023-06-01T13:12:11;31.60;99.90
41547;DHT22;27271;45.412;10.852;2023-06-01T13:15:34;31.30;99.90
41547;DHT22;27271;45.412;10.852;2023-06-01T13:18:57;31.40;99.90
41547;DHT22;27271;45.412;10.852;2023-06-01T13:22:19;31.60;99.90
41547;DHT22;27271;45.412;10.852;2023-06-01T13:25:42;30.80;99.90
41547;DHT22;27271;45.412;10.852;2023-06-01T13:29:04;30.60;99.90
41547;DHT22;27271;45.412;10.852;2023-06-01T13:32:28;30.10;99.90
41547;DHT22;27271;45.412;10.852;2023-06-01T13:35:51;30.10;99.90
41547;DHT22;27271;45.412;10.852;2023-06-01T13:39:13;29.90;99.90
41547;DHT22;27271;45.412;10.852;2023-06-01T13:42:35;30.80;99.90
41547;DHT22;27271;45.412;10.852;2023-06-01T13:45:58;31.40;99.90
41547;DHT22;27271;45.412;10.852;2023-06-01T13:49:20;31.80;99.90
41547;DHT22;27271;45.412;10.852;2023-06-01T13:52:42;31.50;99.90
41547;DHT22;27271;45.412;10.852;2023-06-01T13:56:04;31.60;99.90
41547;DHT22;27271;45.412;10.852;2023-06-01T13:59:27;31.70;99.90
41547;DHT22;27271;45.412;10.852;2023-06-01T14:02:49;31.90;99.90
41547;DHT22;27271;45.412;10.852;2023-06-01T14:06:12;32.20;99.90
41547;DHT22;27271;45.412;10.852;2023-06-01T14:09:34;32.30;99.90
41547;DHT22;27271;45.412;10.852;2023-06-01T14:12:56;32.10;99.90
41547;DHT22;27271;45.412;10.852;2023-06-01T14:16:18;32.10;99.90
41547;DHT22;27271;45.412;10.852;2023-06-01T14:19:40;32.40;99.90
41547;DHT22;27271;45.412;10.852;2023-06-01T14:23:02;33.00;99.90
41547;DHT22;27271;45.412;10.852;2023-06-01T14:26:25;33.40;99.90
41547;DHT22;27271;45.412;10.852;2023-06-01T14:29:48;33.40;99.90
41547;DHT22;27271;45.412;10.852;2023-06-01T14:33:10;33.60;99.90
41547;DHT22;27271;45.412;10.852;2023-06-01T14:36:32;33.30;99.90
41547;DHT22;27271;45.412;10.852;2023-06-01T14:40:08;33.40;99.90
41547;DHT22;27271;45.412;10.852;2023-06-01T14:43:30;33.60;99.90
41547;DHT22;27271;45.412;10.852;2023-06-01T14:46:52;33.50;99.90
41547;DHT22;27271;45.412;10.852;2023-06-01T14:50:14;33.30;99.90
41547;DHT22;27271;45.412;10.852;2023-06-01T14:53:36;33.10;99.90
41547;DHT22;27271;45.412;10.852;2023-06-01T14:57:01;33.00;99.90
41547;DHT22;27271;45.412;10.852;2023-06-01T15:00:23;32.70;99.90
41547;DHT22;27271;45.412;10.852;2023-06-01T15:03:45;32.80;99.90
41547;DHT22;27271;45.412;10.852;2023-06-01T15:07:07;32.80;99.90
41547;DHT22;27271;45.412;10.852;2023-06-01T15:10:29;32.60;99.90
41547;DHT22;27271;45.412;10.852;2023-06-01T15:13:51;32.20;99.90
41547;DHT22;27271;45.412;10.852;2023-06-01T15:17:15;31.90;99.90
41547;DHT22;27271;45.412;10.852;2023-06-01T15:20:37;31.70;99.90
41547;DHT22;27271;45.412;10.852;2023-06-01T15:23:59;31.30;99.90
41547;DHT22;27271;45.412;10.852;2023-06-01T15:27:22;31.10;99.90
41547;DHT22;27271;45.412;10.852;2023-06-01T15:30:44;30.70;99.90
41547;DHT22;27271;45.412;10.852;2023-06-01T15:34:06;30.90;99.90
41547;DHT22;27271;45.412;10.852;2023-06-01T15:37:28;31.40;99.90
41547;DHT22;27271;45.412;10.852;2023-06-01T15:40:51;31.80;99.90
41547;DHT22;27271;45.412;10.852;2023-06-01T15:44:13;32.30;99.90
41547;DHT22;27271;45.412;10.852;2023-06-01T15:47:35;32.70;99.90
41547;DHT22;27271;45.412;10.852;2023-06-01T15:50:58;32.20;99.90
41547;DHT22;27271;45.412;10.852;2023-06-01T15:54:21;31.80;99.90
41547;DHT22;27271;45.412;10.852;2023-06-01T15:57:43;32.00;99.90
41547;DHT22;27271;45.412;10.852;2023-06-01T16:01:05;31.60;99.90
41547;DHT22;27271;45.412;10.852;2023-06-01T16:04:32;31.90;99.90
41547;DHT22;27271;45.412;10.852;2023-06-01T16:07:54;32.00;99.90
41547;DHT22;27271;45.412;10.852;2023-06-01T16:11:16;31.90;99.90
41547;DHT22;27271;45.412;10.852;2023-06-01T16:14:38;31.90;99.90
41547;DHT22;27271;45.412;10.852;2023-06-01T16:18:00;31.90;99.90
41547;DHT22;27271;45.412;10.852;2023-06-01T16:21:23;31.40;99.90
41547;DHT22;27271;45.412;10.852;2023-06-01T16:24:45;31.60;99.90
41547;DHT22;27271;45.412;10.852;2023-06-01T16:28:07;31.20;99.90
41547;DHT22;27271;45.412;10.852;2023-06-01T16:31:29;31.10;99.90
41547;DHT22;27271;45.412;10.852;2023-06-01T16:34:51;30.80;99.90
41547;DHT22;27271;45.412;10.852;2023-06-01T16:38:13;30.60;99.90
41547;DHT22;27271;45.412;10.852;2023-06-01T16:41:35;30.60;99.90
41547;DHT22;27271;45.412;10.852;2023-06-01T16:44:57;30.70;99.90
41547;DHT22;27271;45.412;10.852;2023-06-01T16:48:19;30.60;99.90
41547;DHT22;27271;45.412;10.852;2023-06-01T16:51:41;30.50;99.90
41547;DHT22;27271;45.412;10.852;2023-06-01T16:55:04;30.70;99.90
41547;DHT22;27271;45.412;10.852;2023-06-01T16:58:26;30.60;99.90
41547;DHT22;27271;45.412;10.852;2023-06-01T17:01:49;30.50;99.90
41547;DHT22;27271;45.412;10.852;2023-06-01T17:05:12;30.20;99.90
41547;DHT22;27271;45.412;10.852;2023-06-01T17:08:34;29.90;99.90
41547;DHT22;27271;45.412;10.852;2023-06-01T17:11:56;29.30;99.90
41547;DHT22;27271;45.412;10.852;2023-06-01T17:15:18;29.10;99.90
41547;DHT22;27271;45.412;10.852;2023-06-01T17:18:41;28.90;99.90
41547;DHT22;27271;45.412;10.852;2023-06-01T17:22:04;28.80;99.90
41547;DHT22;27271;45.412;10.852;2023-06-01T17:25:26;28.80;99.90
41547;DHT22;27271;45.412;10.852;2023-06-01T17:28:48;28.80;99.90
41547;DHT22;27271;45.412;10.852;2023-06-01T17:32:10;28.70;99.90
41547;DHT22;27271;45.412;10.852;2023-06-01T17:35:32;28.50;99.90
41547;DHT22;27271;45.412;10.852;2023-06-01T17:38:54;28.30;99.90
41547;DHT22;27271;45.412;10.852;2023-06-01T17:42:16;28.30;99.90
41547;DHT22;27271;45.412;10.852;2023-06-01T17:45:38;28.20;99.90
41547;DHT22;27271;45.412;10.852;2023-06-01T17:49:00;28.00;99.90
41547;DHT22;27271;45.412;10.852;2023-06-01T17:52:22;28.00;99.90
41547;DHT22;27271;45.412;10.852;2023-06-01T17:55:44;27.80;99.90
41547;DHT22;27271;45.412;10.852;2023-06-01T17:59:06;27.70;99.90
41547;DHT22;27271;45.412;10.852;2023-06-01T18:02:28;27.60;99.90
41547;DHT22;27271;45.412;10.852;2023-06-01T18:05:51;27.60;99.90
41547;DHT22;27271;45.412;10.852;2023-06-01T18:09:13;27.40;99.90
41547;DHT22;27271;45.412;10.852;2023-06-01T18:12:35;27.30;99.90
41547;DHT22;27271;45.412;10.852;2023-06-01T18:15:57;27.20;99.90
41547;DHT22;27271;45.412;10.852;2023-06-01T18:19:19;27.00;99.90
41547;DHT22;27271;45.412;10.852;2023-06-01T18:22:42;26.90;99.90
41547;DHT22;27271;45.412;10.852;2023-06-01T18:26:04;26.70;99.90
41547;DHT22;27271;45.412;10.852;2023-06-01T18:29:26;26.20;99.90
41547;DHT22;27271;45.412;10.852;2023-06-01T18:32:48;25.00;31.50
41547;DHT22;27271;45.412;10.852;2023-06-01T18:36:10;23.80;60.80
41547;DHT22;27271;45.412;10.852;2023-06-01T18:39:32;23.00;77.30
41547;DHT22;27271;45.412;10.852;2023-06-01T18:42:55;22.40;1.00
41547;DHT22;27271;45.412;10.852;2023-06-01T18:46:17;22.10;1.00
41547;DHT22;27271;45.412;10.852;2023-06-01T18:49:41;22.10;10.90
41547;DHT22;27271;45.412;10.852;2023-06-01T18:53:05;22.00;26.10
41547;DHT22;27271;45.412;10.852;2023-06-01T18:56:31;22.10;1.00
41547;DHT22;27271;45.412;10.852;2023-06-01T18:59:53;22.20;1.00
41547;DHT22;27271;45.412;10.852;2023-06-01T19:03:17;22.00;1.00
41547;DHT22;27271;45.412;10.852;2023-06-01T19:06:39;22.10;1.00
41547;DHT22;27271;45.412;10.852;2023-06-01T19:10:06;22.00;1.00
41547;DHT22;27271;45.412;10.852;2023-06-01T19:13:44;22.10;1.00
41547;DHT22;27271;45.412;10.852;2023-06-01T19:17:07;21.90;1.00
41547;DHT22;27271;45.412;10.852;2023-06-01T19:21:13;21.90;32.50
41547;DHT22;27271;45.412;10.852;2023-06-01T19:24:36;21.90;11.60
41547;DHT22;27271;45.412;10.852;2023-06-01T19:27:58;21.80;1.00
41547;DHT22;27271;45.412;10.852;2023-06-01T19:31:22;21.70;49.40
41547;DHT22;27271;45.412;10.852;2023-06-01T19:34:45;21.50;80.90
41547;DHT22;27271;45.412;10.852;2023-06-01T19:38:07;21.30;88.40
41547;DHT22;27271;45.412;10.852;2023-06-01T19:41:32;21.20;98.10
41547;DHT22;27271;45.412;10.852;2023-06-01T19:44:58;21.10;99.90
41547;DHT22;27271;45.412;10.852;2023-06-01T19:48:26;21.00;99.90
41547;DHT22;27271;45.412;10.852;2023-06-01T19:51:49;21.00;75.20
41547;DHT22;27271;45.412;10.852;2023-06-01T19:55:14;21.00;55.80
41547;DHT22;27271;45.412;10.852;2023-06-01T19:58:36;20.90;93.60
41547;DHT22;27271;45.412;10.852;2023-06-01T20:02:00;20.90;72.70
41547;DHT22;27271;45.412;10.852;2023-06-01T20:05:24;20.90;35.60
41547;DHT22;27271;45.412;10.852;2023-06-01T20:08:47;20.70;57.80
41547;DHT22;27271;45.412;10.852;2023-06-01T20:12:11;20.70;6.30
41547;DHT22;27271;45.412;10.852;2023-06-01T20:15:38;20.70;1.00
41547;DHT22;27271;45.412;10.852;2023-06-01T20:19:07;20.50;70.60
41547;DHT22;27271;45.412;10.852;2023-06-01T20:22:33;20.40;12.40
41547;DHT22;27271;45.412;10.852;2023-06-01T20:25:55;20.40;11.60
41547;DHT22;27271;45.412;10.852;2023-06-01T20:29:19;20.50;14.30
41547;DHT22;27271;45.412;10.852;2023-06-01T20:32:41;20.50;11.00
41547;DHT22;27271;45.412;10.852;2023-06-01T20:36:06;20.50;8.90
41547;DHT22;27271;45.412;10.852;2023-06-01T20:39:28;20.50;1.00
41547;DHT22;27271;45.412;10.852;2023-06-01T20:42:50;20.40;2.90
41547;DHT22;27271;45.412;10.852;2023-06-01T20:46:13;20.40;9.40
41547;DHT22;27271;45.412;10.852;2023-06-01T20:49:35;20.30;11.90
41547;DHT22;27271;45.412;10.852;2023-06-01T20:52:57;20.30;26.00
41547;DHT22;27271;45.412;10.852;2023-06-01T20:56:34;20.20;20.30
41547;DHT22;27271;45.412;10.852;2023-06-01T20:59:56;20.20;14.10
41547;DHT22;27271;45.412;10.852;2023-06-01T21:03:18;20.20;41.90
41547;DHT22;27271;45.412;10.852;2023-06-01T21:06:41;20.20;28.50
41547;DHT22;27271;45.412;10.852;2023-06-01T21:10:03;20.10;17.40
41547;DHT22;27271;45.412;10.852;2023-06-01T21:13:25;19.90;60.90
41547;DHT22;27271;45.412;10.852;2023-06-01T21:16:50;19.90;29.50
41547;DHT22;27271;45.412;10.852;2023-06-01T21:20:13;19.80;25.00
41547;DHT22;27271;45.412;10.852;2023-06-01T21:23:35;19.80;86.00
41547;DHT22;27271;45.412;10.852;2023-06-01T21:26:57;19.80;69.20
41547;DHT22;27271;45.412;10.852;2023-06-01T21:30:20;19.80;84.70
41547;DHT22;27271;45.412;10.852;2023-06-01T21:33:42;19.80;72.90
41547;DHT22;27271;45.412;10.852;2023-06-01T21:37:04;19.70;91.80
41547;DHT22;27271;45.412;10.852;2023-06-01T21:40:26;19.70;89.80